Time;durP1;ratioP1;P1;durP2;ratioP2;P2;SDS_P1;SDS_P2;PMS_P1;PMS_P2;Temp;Humidity;BMP_temperature;BMP_pressure;BME280_temperature;BME280_humidity;BME280_pressure;Samples;Min_cycle;Max_cycle;Signal;HPM_P1;HPM_P2
2024/01/31 00:00:19;;;;;;;24.35;10.40;;;-3.40;99.90;;;;;;4979615;28;20501;-77
2024/01/31 00:02:45;;;;;;;25.88;12.23;;;-3.40;99.90;;;;;;4998113;28;20101;-77
2024/01/31 00:05:15;;;;;;;19.10;10.48;;;-3.50;99.90;;;;;;4980227;28;20027;-76
2024/01/31 00:07:43;;;;;;;20.48;9.68;;;-3.50;99.90;;;;;;4980488;28;20053;-77
2024/01/31 00:10:09;;;;;;;20.58;10.75;;;-3.50;99.90;;;;;;4997449;28;20504;-75
2024/01/31 00:12:34;;;;;;;19.42;9.20;;;-3.50;99.90;;;;;;4979870;28;20028;-76
2024/01/31 00:15:00;;;;;;;16.52;9.63;;;-3.50;99.90;;;;;;4979704;28;20049;-77
2024/01/31 00:17:26;;;;;;;18.73;9.07;;;-3.60;99.90;;;;;;4979314;28;20081;-76
2024/01/31 00:19:52;;;;;;;17.58;9.10;;;-3.60;99.90;;;;;;4978428;28;20034;-76
2024/01/31 00:22:18;;;;;;;16.15;9.10;;;-3.60;99.90;;;;;;4979066;28;20023;-77
2024/01/31 00:24:44;;;;;;;18.95;9.68;;;-3.70;99.90;;;;;;4979263;28;20539;-77
2024/01/31 00:27:09;;;;;;;22.05;11.32;;;-3.70;99.90;;;;;;4994388;28;20400;-77
2024/01/31 00:29:35;;;;;;;16.75;9.25;;;-3.70;99.90;;;;;;4979058;28;20053;-76
2024/01/31 00:32:01;;;;;;;19.20;8.93;;;-3.60;99.90;;;;;;4979476;28;20026;-76
2024/01/31 00:34:27;;;;;;;16.65;8.88;;;-3.70;99.90;;;;;;4979145;28;20054;-76
2024/01/31 00:36:52;;;;;;;16.55;8.50;;;-3.70;99.90;;;;;;4979233;28;20026;-77
2024/01/31 00:39:20;;;;;;;21.15;10.65;;;-3.70;99.90;;;;;;4979109;28;20026;-77
2024/01/31 00:41:47;;;;;;;23.83;10.48;;;-3.80;99.90;;;;;;4997548;28;20033;-76
2024/01/31 00:44:13;;;;;;;18.45;9.65;;;-3.80;99.90;;;;;;4979776;28;20037;-77
2024/01/31 00:46:44;;;;;;;17.73;9.40;;;-3.80;99.90;;;;;;4979203;28;20089;-76
2024/01/31 00:49:10;;;;;;;14.02;9.93;;;-3.80;99.90;;;;;;4979569;28;20038;-78
2024/01/31 00:51:36;;;;;;;24.13;10.00;;;-3.80;99.90;;;;;;4979631;28;20027;-77
2024/01/31 00:54:01;;;;;;;20.05;10.05;;;-3.80;99.90;;;;;;4996834;28;20026;-76
2024/01/31 00:56:27;;;;;;;18.80;10.00;;;-3.80;99.90;;;;;;4979721;28;20077;-77
2024/01/31 00:58:52;;;;;;;20.52;10.10;;;-3.80;99.90;;;;;;4977130;28;20022;-76
2024/01/31 01:01:18;;;;;;;28.10;10.32;;;-3.80;99.90;;;;;;4979429;28;20027;-76
2024/01/31 01:03:44;;;;;;;20.40;9.70;;;-3.80;99.90;;;;;;4997062;28;20022;-76
2024/01/31 01:06:10;;;;;;;21.30;9.65;;;-3.80;99.90;;;;;;4997199;28;20042;-76
2024/01/31 01:08:36;;;;;;;29.50;9.55;;;-3.80;99.90;;;;;;4979373;28;20026;-76
2024/01/31 01:11:01;;;;;;;16.55;9.25;;;-3.80;99.90;;;;;;4996195;28;20034;-79
2024/01/31 01:13:27;;;;;;;18.25;8.25;;;-3.20;99.90;;;;;;4996756;28;20030;-77
2024/01/31 01:15:52;;;;;;;24.08;12.30;;;-3.80;99.90;;;;;;4996529;28;20023;-77
2024/01/31 01:18:18;;;;;;;26.50;10.82;;;-3.80;99.90;;;;;;4977877;28;20029;-79
2024/01/31 01:20:45;;;;;;;23.13;11.43;;;-3.70;99.90;;;;;;4994214;28;20031;-79
2024/01/31 01:23:13;;;;;;;24.10;10.35;;;-3.70;99.90;;;;;;4976232;28;20050;-80
2024/01/31 01:25:39;;;;;;;24.85;10.40;;;-3.70;99.90;;;;;;4976371;28;20058;-80
2024/01/31 01:28:05;;;;;;;21.98;11.30;;;-3.70;99.90;;;;;;4976201;28;20428;-80
2024/01/31 01:30:30;;;;;;;23.55;10.32;;;-3.70;99.90;;;;;;4975735;28;20477;-80
2024/01/31 01:32:56;;;;;;;21.38;10.73;;;-3.70;99.90;;;;;;4976506;28;20030;-80
2024/01/31 01:35:22;;;;;;;20.00;10.80;;;-3.70;99.90;;;;;;4976466;28;20042;-80
2024/01/31 01:37:48;;;;;;;23.25;11.77;;;-3.60;99.90;;;;;;4993978;28;20018;-80
2024/01/31 01:40:15;;;;;;;24.83;11.80;;;-3.60;99.90;;;;;;4976322;28;20169;-79
2024/01/31 01:42:41;;;;;;;20.05;10.45;;;-3.60;99.90;;;;;;4994169;28;20109;-81
2024/01/31 01:45:08;;;;;;;23.27;11.23;;;-3.60;99.90;;;;;;4976407;28;20062;-79
2024/01/31 01:47:36;;;;;;;24.05;12.27;;;-3.60;99.90;;;;;;4976983;28;20030;-80
2024/01/31 01:50:03;;;;;;;16.42;9.70;;;-3.60;99.90;;;;;;4976520;28;20405;-80
2024/01/31 01:52:30;;;;;;;22.02;11.80;;;-3.60;99.90;;;;;;4977856;28;20027;-79
2024/01/31 01:54:57;;;;;;;20.52;10.40;;;-3.70;99.90;;;;;;4978259;28;20109;-81
2024/01/31 01:57:22;;;;;;;19.25;9.95;;;-3.70;99.90;;;;;;4979435;28;20077;-80
2024/01/31 01:59:48;;;;;;;13.65;9.57;;;-3.80;99.90;;;;;;4981770;28;20030;-78
2024/01/31 02:02:14;;;;;;;16.25;9.38;;;-3.80;99.90;;;;;;4975217;28;20026;-77
2024/01/31 02:04:40;;;;;;;24.38;10.25;;;-3.90;99.90;;;;;;4976493;28;20456;-79
2024/01/31 02:07:06;;;;;;;22.50;10.18;;;-3.90;99.90;;;;;;4978911;28;20108;-77
2024/01/31 02:09:32;;;;;;;15.90;9.93;;;-3.90;99.90;;;;;;4980138;28;20022;-78
2024/01/31 02:11:58;;;;;;;20.15;9.40;;;-3.90;99.90;;;;;;4980659;28;20476;-77
2024/01/31 02:14:23;;;;;;;19.83;9.65;;;-3.90;99.90;;;;;;4981021;28;20090;-76
2024/01/31 02:16:49;;;;;;;14.15;8.55;;;-3.90;99.90;;;;;;4997336;28;20473;-78
2024/01/31 02:19:15;;;;;;;20.55;9.43;;;-4.00;99.90;;;;;;4979734;28;20030;-79
2024/01/31 02:21:43;;;;;;;22.40;9.70;;;-4.00;99.90;;;;;;4980250;28;20033;-77
2024/01/31 02:24:09;;;;;;;15.68;8.45;;;-4.00;99.90;;;;;;4980375;28;20077;-76
2024/01/31 02:26:35;;;;;;;18.60;8.63;;;-4.00;99.90;;;;;;4997705;28;20030;-78
2024/01/31 02:29:01;;;;;;;26.30;9.15;;;-4.00;99.90;;;;;;4997252;28;20057;-77
2024/01/31 02:31:26;;;;;;;15.57;9.52;;;-4.00;99.90;;;;;;4979856;28;20100;-78
2024/01/31 02:33:52;;;;;;;15.80;8.77;;;-4.10;99.90;;;;;;4979981;28;20396;-79
2024/01/31 02:36:17;;;;;;;17.48;8.48;;;-4.10;99.90;;;;;;4980005;28;20023;-79
2024/01/31 02:38:43;;;;;;;14.15;8.07;;;-4.10;99.90;;;;;;4997290;28;20528;-76
2024/01/31 02:41:09;;;;;;;15.88;8.73;;;-4.10;99.90;;;;;;4980283;28;20035;-76
2024/01/31 02:43:34;;;;;;;19.65;9.73;;;-4.20;99.90;;;;;;4997225;28;20088;-78
2024/01/31 02:46:00;;;;;;;19.35;8.55;;;-4.20;99.90;;;;;;4997897;28;20026;-77
2024/01/31 02:48:25;;;;;;;19.27;10.18;;;-4.10;99.90;;;;;;4979594;28;20049;-77
2024/01/31 02:50:51;;;;;;;18.02;8.90;;;-4.10;99.90;;;;;;4979834;28;20031;-76
2024/01/31 02:53:17;;;;;;;18.30;9.40;;;-4.10;99.90;;;;;;4980047;28;20520;-77
2024/01/31 02:55:42;;;;;;;22.27;9.18;;;-4.10;99.90;;;;;;4980122;28;20030;-78
2024/01/31 02:58:08;;;;;;;19.33;9.75;;;-4.10;99.90;;;;;;4980125;28;20027;-76
2024/01/31 03:00:34;;;;;;;17.10;9.57;;;-4.10;99.90;;;;;;4979793;28;20026;-77
2024/01/31 03:02:59;;;;;;;15.25;8.70;;;-4.10;99.90;;;;;;4980181;28;20035;-75
2024/01/31 03:05:25;;;;;;;16.77;9.73;;;-4.10;99.90;;;;;;4979452;28;20527;-76
2024/01/31 03:07:50;;;;;;;20.13;11.40;;;-4.20;99.90;;;;;;4996696;28;20409;-80
2024/01/31 03:10:16;;;;;;;16.95;8.98;;;-4.10;99.90;;;;;;4996571;28;20027;-78
2024/01/31 03:12:42;;;;;;;17.15;9.15;;;-4.20;99.90;;;;;;4979450;28;20457;-77
2024/01/31 03:15:07;;;;;;;18.52;9.75;;;-4.20;99.90;;;;;;4980406;28;20029;-77
2024/01/31 03:17:35;;;;;;;12.82;7.80;;;-4.20;99.90;;;;;;4997275;28;20019;-78
2024/01/31 03:20:05;;;;;;;19.17;8.45;;;-4.20;99.90;;;;;;4979824;28;20098;-77
2024/01/31 03:22:31;;;;;;;10.68;7.03;;;-4.20;99.90;;;;;;4996836;28;20057;-77
2024/01/31 03:24:57;;;;;;;15.13;8.18;;;-4.20;99.90;;;;;;4979453;28;20038;-77
2024/01/31 03:27:23;;;;;;;21.30;11.18;;;-4.20;99.90;;;;;;4979432;28;20133;-78
2024/01/31 03:29:48;;;;;;;21.30;10.07;;;-4.20;99.90;;;;;;4996962;28;20034;-78
2024/01/31 03:32:14;;;;;;;26.80;9.43;;;-4.10;99.90;;;;;;4979978;28;20022;-78
2024/01/31 03:34:40;;;;;;;18.13;9.85;;;-4.20;99.90;;;;;;4980090;28;20030;-78
2024/01/31 03:37:05;;;;;;;25.55;8.48;;;-4.20;99.90;;;;;;4979305;28;20053;-76
2024/01/31 03:39:32;;;;;;;12.32;7.22;;;-4.10;99.90;;;;;;4996732;28;20026;-77
2024/01/31 03:41:58;;;;;;;15.82;8.63;;;-4.20;99.90;;;;;;4979432;28;20038;-77
2024/01/31 03:44:24;;;;;;;18.20;8.27;;;-4.20;99.90;;;;;;4979725;28;20046;-78
2024/01/31 03:46:49;;;;;;;15.90;9.05;;;-4.20;99.90;;;;;;4996711;28;20050;-77
2024/01/31 03:49:15;;;;;;;13.27;9.23;;;-4.20;99.90;;;;;;4996606;28;20026;-77
2024/01/31 03:51:41;;;;;;;20.85;9.13;;;-4.20;99.90;;;;;;4996745;28;20034;-77
2024/01/31 03:54:06;;;;;;;19.33;8.10;;;-4.10;99.90;;;;;;4996880;28;20109;-77
2024/01/31 03:56:32;;;;;;;21.15;10.10;;;-4.10;99.90;;;;;;4979716;28;20027;-76
2024/01/31 03:58:58;;;;;;;19.05;9.05;;;-4.00;99.90;;;;;;4979118;28;20023;-76
2024/01/31 04:01:23;;;;;;;21.42;8.52;;;-4.00;99.90;;;;;;4979577;28;20026;-76
2024/01/31 04:03:49;;;;;;;19.15;9.38;;;-4.00;99.90;;;;;;4996600;28;20485;-77
2024/01/31 04:06:14;;;;;;;23.60;9.73;;;-4.00;99.90;;;;;;4980617;28;20485;-79
2024/01/31 04:08:40;;;;;;;21.17;11.52;;;-3.90;99.90;;;;;;4979689;28;20022;-77
2024/01/31 04:11:06;;;;;;;18.80;10.00;;;-3.80;99.90;;;;;;4978602;28;20065;-78
2024/01/31 04:13:31;;;;;;;20.13;10.45;;;-3.80;99.90;;;;;;4996344;28;20030;-80
2024/01/31 04:15:58;;;;;;;21.77;10.60;;;-3.70;99.90;;;;;;4979187;28;20049;-77
2024/01/31 04:18:24;;;;;;;19.80;10.02;;;-3.70;99.90;;;;;;4979568;28;20029;-78
2024/01/31 04:20:50;;;;;;;24.35;10.40;;;-3.70;99.90;;;;;;4995974;28;20026;-81
2024/01/31 04:23:16;;;;;;;20.60;9.98;;;-3.60;99.90;;;;;;4979626;28;20046;-76
2024/01/31 04:25:41;;;;;;;20.10;10.60;;;-3.60;99.90;;;;;;4997457;28;20029;-76
2024/01/31 04:28:07;;;;;;;27.63;11.48;;;-3.50;99.90;;;;;;4979270;28;20077;-77
2024/01/31 04:30:33;;;;;;;22.73;11.80;;;-3.50;99.90;;;;;;4979039;28;20118;-77
2024/01/31 04:33:02;;;;;;;21.52;11.45;;;-3.50;99.90;;;;;;4979877;28;20025;-76
2024/01/31 04:35:28;;;;;;;32.38;11.13;;;-3.50;99.90;;;;;;4978988;28;20027;-77
2024/01/31 04:37:54;;;;;;;35.47;11.20;;;-2.40;99.90;;;;;;4998315;28;20393;-79
2024/01/31 04:40:20;;;;;;;21.67;11.18;;;-2.70;99.90;;;;;;4978807;28;20032;-79
2024/01/31 04:42:47;;;;;;;22.63;11.35;;;-2.90;99.90;;;;;;4980129;28;20489;-79
2024/01/31 04:45:13;;;;;;;15.88;8.95;;;-3.00;99.90;;;;;;4977808;28;20035;-78
2024/01/31 04:47:41;;;;;;;21.55;10.88;;;-3.10;99.90;;;;;;4977572;28;20485;-79
2024/01/31 04:50:07;;;;;;;18.75;10.77;;;-3.10;99.90;;;;;;4977577;28;20474;-78
2024/01/31 04:52:33;;;;;;;19.10;11.05;;;-3.20;99.90;;;;;;4978224;28;20037;-78
2024/01/31 04:54:58;;;;;;;17.88;9.55;;;-3.20;99.90;;;;;;4977601;28;20042;-78
2024/01/31 04:57:24;;;;;;;21.05;10.27;;;-3.20;99.90;;;;;;4995170;28;20037;-77
2024/01/31 04:59:50;;;;;;;31.65;13.60;;;-3.20;99.90;;;;;;4997433;28;20019;-77
2024/01/31 05:02:16;;;;;;;25.45;10.40;;;-3.20;99.90;;;;;;4980151;28;20042;-77
2024/01/31 05:04:41;;;;;;;22.60;11.02;;;-3.20;99.90;;;;;;4979781;28;20029;-80
2024/01/31 05:07:07;;;;;;;20.70;11.43;;;-3.20;99.90;;;;;;4979151;28;20034;-77
2024/01/31 05:09:33;;;;;;;26.92;10.82;;;-3.20;99.90;;;;;;4995802;28;20026;-79
2024/01/31 05:11:58;;;;;;;21.60;10.02;;;-3.20;99.90;;;;;;4978374;28;20030;-79
2024/01/31 05:14:24;;;;;;;27.42;10.68;;;-2.90;99.90;;;;;;4994623;28;20058;-78
2024/01/31 05:16:50;;;;;;;20.00;11.13;;;-3.20;99.90;;;;;;4976931;28;20026;-80
2024/01/31 05:19:16;;;;;;;17.83;10.20;;;-3.20;99.90;;;;;;4976733;28;20025;-78
2024/01/31 05:21:49;;;;;;;20.83;9.65;;;-3.20;99.90;;;;;;4993987;28;20026;-80
2024/01/31 05:24:15;;;;;;;24.95;11.30;;;-3.10;99.90;;;;;;4977154;28;20026;-77
2024/01/31 05:26:42;;;;;;;28.95;12.38;;;-3.20;99.90;;;;;;4994226;28;20072;-78
2024/01/31 05:29:08;;;;;;;22.05;11.25;;;-3.20;99.90;;;;;;4976569;28;20034;-78
2024/01/31 05:31:34;;;;;;;27.88;14.50;;;-3.10;99.90;;;;;;4976912;28;20037;-78
2024/01/31 05:34:00;;;;;;;21.85;12.15;;;-3.10;99.90;;;;;;4976892;28;20393;-79
2024/01/31 05:36:25;;;;;;;23.77;11.52;;;-3.10;99.90;;;;;;4977043;28;20023;-78
2024/01/31 05:38:51;;;;;;;20.23;10.32;;;-3.10;99.90;;;;;;4976619;28;20027;-77
2024/01/31 05:41:17;;;;;;;23.08;11.75;;;-3.10;99.90;;;;;;4978669;28;20049;-78
2024/01/31 05:43:42;;;;;;;26.65;13.13;;;-3.00;99.90;;;;;;4980841;28;20073;-78
2024/01/31 05:46:08;;;;;;;21.63;11.38;;;-3.00;99.90;;;;;;4998390;28;20026;-78
2024/01/31 05:48:34;;;;;;;25.38;12.95;;;-3.10;99.90;;;;;;4998968;28;20106;-76
2024/01/31 05:50:59;;;;;;;17.20;10.45;;;-3.00;99.90;;;;;;4982920;28;20026;-76
2024/01/31 05:53:25;;;;;;;22.08;11.05;;;-3.00;99.90;;;;;;5001345;28;20069;-76
2024/01/31 05:55:51;;;;;;;24.70;10.52;;;-3.00;99.90;;;;;;4982029;28;20393;-76
2024/01/31 05:58:19;;;;;;;18.90;10.35;;;-2.90;99.90;;;;;;4999078;28;20481;-79
2024/01/31 06:00:46;;;;;;;21.80;11.23;;;-3.00;99.90;;;;;;4982001;28;20026;-76
2024/01/31 06:03:12;;;;;;;24.00;11.82;;;-3.00;99.90;;;;;;4982207;28;20037;-76
2024/01/31 06:05:38;;;;;;;24.65;12.45;;;-3.00;99.90;;;;;;4981986;28;20397;-78
2024/01/31 06:08:04;;;;;;;26.10;11.65;;;-3.00;99.90;;;;;;4981647;28;20030;-76
2024/01/31 06:10:29;;;;;;;18.67;9.63;;;-3.00;99.90;;;;;;4999341;28;20058;-78
2024/01/31 06:12:55;;;;;;;17.30;10.13;;;-3.00;99.90;;;;;;4983039;28;20085;-76
2024/01/31 06:15:21;;;;;;;65.78;19.38;;;-3.00;99.90;;;;;;5000892;28;20019;-77
2024/01/31 06:17:46;;;;;;;35.15;13.30;;;-3.00;99.90;;;;;;4983240;28;20034;-77
2024/01/31 06:20:12;;;;;;;43.05;14.55;;;-3.00;99.90;;;;;;4982250;28;20034;-76
2024/01/31 06:22:38;;;;;;;22.30;9.45;;;-2.90;99.90;;;;;;4982592;28;20030;-76
2024/01/31 06:25:04;;;;;;;23.17;9.65;;;-2.90;99.90;;;;;;4982175;28;20026;-76
2024/01/31 06:27:31;;;;;;;26.30;13.27;;;1.30;99.90;;;;;;5001240;28;20041;-77
2024/01/31 06:29:57;;;;;;;26.23;11.93;;;2.30;99.90;;;;;;4982151;28;20032;-77
2024/01/31 06:32:30;;;;;;;26.23;13.95;;;3.00;99.90;;;;;;4998720;28;20058;-76
2024/01/31 06:34:56;;;;;;;24.80;12.95;;;2.60;99.90;;;;;;4980557;28;20019;-77
2024/01/31 06:37:21;;;;;;;25.25;11.07;;;1.50;99.90;;;;;;4980252;28;20044;-77
2024/01/31 06:39:47;;;;;;;20.88;10.20;;;0.50;99.90;;;;;;4980705;28;20041;-76
2024/01/31 06:42:13;;;;;;;18.00;9.25;;;-0.30;99.90;;;;;;4998409;28;20027;-78
2024/01/31 06:44:38;;;;;;;16.15;8.80;;;-0.90;99.90;;;;;;4980572;28;20022;-77
2024/01/31 06:47:05;;;;;;;17.05;8.05;;;-1.30;99.90;;;;;;4982166;28;20057;-77
2024/01/31 06:49:31;;;;;;;22.52;9.25;;;-0.80;99.90;;;;;;4979689;28;20038;-78
2024/01/31 06:51:57;;;;;;;20.17;8.00;;;-1.20;99.90;;;;;;4980160;28;20026;-77
2024/01/31 06:54:22;;;;;;;22.73;8.85;;;-1.40;99.90;;;;;;4980859;28;20481;-77
2024/01/31 06:56:48;;;;;;;19.25;9.30;;;-1.70;99.90;;;;;;4981273;28;20033;-77
2024/01/31 06:59:14;;;;;;;19.55;9.80;;;-1.90;99.90;;;;;;4997516;28;20019;-77
2024/01/31 07:01:39;;;;;;;21.08;9.45;;;-2.00;99.90;;;;;;4982908;28;20029;-77
2024/01/31 07:04:05;;;;;;;14.70;8.82;;;-1.90;99.90;;;;;;4999772;28;20078;-80
2024/01/31 07:06:31;;;;;;;14.40;8.77;;;-1.80;99.90;;;;;;4981583;28;20022;-77
2024/01/31 07:08:56;;;;;;;17.23;9.07;;;-1.90;99.90;;;;;;4980585;28;20549;-78
2024/01/31 07:11:22;;;;;;;18.50;9.23;;;-2.00;99.90;;;;;;4982287;28;20398;-77
2024/01/31 07:13:48;;;;;;;17.63;9.63;;;-2.00;99.90;;;;;;4998896;28;20026;-77
2024/01/31 07:16:14;;;;;;;21.88;9.95;;;-1.20;99.90;;;;;;4999691;28;20029;-76
2024/01/31 07:18:41;;;;;;;21.35;10.90;;;-1.80;99.90;;;;;;4998895;28;20041;-78
2024/01/31 07:21:06;;;;;;;29.92;14.00;;;-1.80;99.90;;;;;;4982614;28;20033;-77
2024/01/31 07:23:32;;;;;;;31.52;15.05;;;-1.80;99.90;;;;;;4981054;28;20026;-82
2024/01/31 07:25:58;;;;;;;29.92;14.88;;;-1.70;99.90;;;;;;4980902;28;20026;-77
2024/01/31 07:28:23;;;;;;;25.95;13.38;;;-1.50;99.90;;;;;;4980349;28;20105;-77
2024/01/31 07:30:49;;;;;;;27.77;12.60;;;-1.60;99.90;;;;;;4980961;28;20037;-78
2024/01/31 07:33:15;;;;;;;24.30;10.52;;;-1.50;99.90;;;;;;4999159;28;20022;-77
2024/01/31 07:35:40;;;;;;;21.38;10.23;;;-0.70;99.90;;;;;;4981619;28;20022;-76
2024/01/31 07:38:06;;;;;;;25.00;10.85;;;-1.60;99.90;;;;;;4981888;28;20074;-77
2024/01/31 07:40:32;;;;;;;22.13;12.15;;;-1.60;99.90;;;;;;4998370;28;20019;-77
2024/01/31 07:42:57;;;;;;;16.55;10.55;;;-1.10;99.90;;;;;;4980633;28;20026;-77
2024/01/31 07:45:24;;;;;;;20.88;9.73;;;-1.50;99.90;;;;;;4980379;28;20061;-77
2024/01/31 07:47:49;;;;;;;19.35;10.27;;;-1.50;99.90;;;;;;4980583;28;20031;-77
2024/01/31 07:50:15;;;;;;;15.82;9.82;;;-1.50;99.90;;;;;;4980002;28;20511;-77
2024/01/31 07:52:41;;;;;;;16.77;10.15;;;-1.50;99.90;;;;;;4979292;28;20030;-77
2024/01/31 07:55:08;;;;;;;17.80;10.48;;;-1.50;99.90;;;;;;4997334;28;20040;-77
2024/01/31 07:57:33;;;;;;;28.83;11.10;;;-1.30;99.90;;;;;;4979715;28;20018;-77
2024/01/31 07:59:59;;;;;;;24.55;10.27;;;-1.30;99.90;;;;;;4979218;28;20551;-76
2024/01/31 08:02:25;;;;;;;22.48;10.75;;;-0.50;99.90;;;;;;4979649;28;20034;-77
2024/01/31 08:04:51;;;;;;;22.58;10.25;;;-1.30;99.90;;;;;;4979099;28;20164;-76
2024/01/31 08:07:16;;;;;;;21.10;10.60;;;-0.50;99.90;;;;;;4979331;28;20134;-77
2024/01/31 08:09:42;;;;;;;19.40;10.30;;;-1.20;99.90;;;;;;4996667;28;20535;-77
2024/01/31 08:12:08;;;;;;;15.13;9.27;;;-0.90;99.90;;;;;;4996665;28;20077;-78
2024/01/31 08:14:34;;;;;;;18.55;9.52;;;-1.00;99.90;;;;;;4996921;28;20050;-77
2024/01/31 08:16:59;;;;;;;22.33;9.43;;;-1.00;99.90;;;;;;4997036;28;20505;-77
2024/01/31 08:19:25;;;;;;;16.23;10.07;;;-0.10;99.90;;;;;;4979734;28;20393;-78
2024/01/31 08:21:51;;;;;;;15.18;9.57;;;-0.80;99.90;;;;;;4979653;28;20034;-79
2024/01/31 08:24:18;;;;;;;20.02;10.07;;;-0.60;99.90;;;;;;4979619;28;20393;-77
2024/01/31 08:26:44;;;;;;;18.23;11.25;;;-0.40;99.90;;;;;;4979645;28;20037;-77
2024/01/31 08:29:09;;;;;;;14.73;8.88;;;-0.50;99.90;;;;;;4980262;28;20039;-78
2024/01/31 08:31:35;;;;;;;23.77;11.10;;;-0.40;99.90;;;;;;4997688;28;20031;-80
2024/01/31 08:34:01;;;;;;;19.05;10.35;;;-0.10;99.90;;;;;;4982758;28;20500;-81
2024/01/31 08:36:26;;;;;;;26.23;10.75;;;-0.30;99.90;;;;;;4998660;28;20029;-81
2024/01/31 08:38:52;;;;;;;19.80;12.38;;;-0.20;99.90;;;;;;5000351;28;20057;-80
2024/01/31 08:41:19;;;;;;;20.95;11.38;;;-0.10;99.90;;;;;;4984078;28;20030;-81
2024/01/31 08:43:45;;;;;;;16.77;9.27;;;-0.10;99.90;;;;;;4982709;28;20519;-79
2024/01/31 08:46:11;;;;;;;19.25;11.68;;;0.00;99.90;;;;;;4982277;28;20034;-80
2024/01/31 08:48:38;;;;;;;21.42;12.18;;;0.00;99.90;;;;;;4981659;28;20023;-80
2024/01/31 08:51:05;;;;;;;18.80;10.82;;;0.30;99.90;;;;;;5000628;28;20551;-81
2024/01/31 08:53:32;;;;;;;20.65;11.13;;;0.00;99.90;;;;;;5002387;28;20033;-81
2024/01/31 08:55:57;;;;;;;22.05;10.45;;;0.20;99.90;;;;;;5000727;28;20026;-81
2024/01/31 08:58:23;;;;;;;21.95;11.15;;;0.30;99.90;;;;;;4983968;28;20050;-79
2024/01/31 09:00:49;;;;;;;25.90;11.60;;;0.50;99.90;;;;;;4984094;28;20045;-79
2024/01/31 09:03:15;;;;;;;24.35;11.88;;;0.40;99.90;;;;;;4986120;28;20053;-81
2024/01/31 09:05:40;;;;;;;22.13;11.50;;;0.60;99.90;;;;;;4989010;28;20090;-80
2024/01/31 09:08:06;;;;;;;28.40;11.10;;;0.80;99.90;;;;;;4989261;28;20037;-76
2024/01/31 09:10:32;;;;;;;21.60;10.48;;;0.70;99.90;;;;;;4977579;28;20551;-80
2024/01/31 09:12:57;;;;;;;27.55;12.27;;;0.80;99.90;;;;;;4977178;28;20029;-77
2024/01/31 09:15:23;;;;;;;23.58;10.70;;;0.90;99.90;;;;;;4978312;28;20125;-78
2024/01/31 09:17:49;;;;;;;22.02;10.52;;;1.40;99.90;;;;;;4994294;28;20038;-77
2024/01/31 09:20:15;;;;;;;20.13;10.43;;;1.00;99.90;;;;;;4977153;28;20467;-77
2024/01/31 09:22:40;;;;;;;33.63;11.65;;;1.10;99.90;;;;;;4977812;28;20065;-77
2024/01/31 09:25:06;;;;;;;26.40;13.02;;;1.30;99.90;;;;;;4977415;28;20034;-77
2024/01/31 09:27:32;;;;;;;31.45;11.60;;;1.30;99.90;;;;;;4976946;28;20026;-78
2024/01/31 09:29:58;;;;;;;23.35;12.10;;;1.40;99.90;;;;;;4976490;28;20038;-77
2024/01/31 09:32:23;;;;;;;22.08;10.82;;;1.50;99.90;;;;;;4977040;28;20022;-77
2024/01/31 09:34:49;;;;;;;18.63;11.73;;;1.50;99.90;;;;;;4994632;28;20416;-77
2024/01/31 09:37:15;;;;;;;24.92;11.63;;;1.50;99.90;;;;;;4994744;28;20019;-78
2024/01/31 09:39:40;;;;;;;24.02;11.82;;;1.60;99.90;;;;;;4977027;28;20388;-78
2024/01/31 09:42:07;;;;;;;27.67;12.65;;;1.60;99.90;;;;;;4994348;28;20026;-78
2024/01/31 09:44:34;;;;;;;21.08;9.88;;;1.70;99.90;;;;;;4994799;28;20496;-77
2024/01/31 09:47:00;;;;;;;18.85;10.40;;;1.80;99.90;;;;;;4976341;28;20054;-78
2024/01/31 09:49:26;;;;;;;24.88;12.73;;;1.70;99.90;;;;;;4976692;28;20081;-79
2024/01/31 09:51:59;;;;;;;19.63;11.57;;;1.70;99.90;;;;;;4977733;28;20037;-78
2024/01/31 09:54:26;;;;;;;25.05;11.20;;;1.70;99.90;;;;;;4977674;28;20033;-77
2024/01/31 09:56:52;;;;;;;19.42;12.27;;;1.70;99.90;;;;;;4976960;28;20101;-77
2024/01/31 09:59:18;;;;;;;23.35;11.70;;;1.80;99.90;;;;;;4994083;28;20481;-77
2024/01/31 10:01:46;;;;;;;19.73;11.95;;;1.90;99.90;;;;;;4979536;28;20126;-77
2024/01/31 10:04:12;;;;;;;22.67;12.13;;;1.90;99.90;;;;;;4978105;28;20053;-77
2024/01/31 10:06:39;;;;;;;24.23;12.48;;;2.00;99.90;;;;;;4977010;28;20128;-78
2024/01/31 10:09:06;;;;;;;22.60;10.85;;;2.10;99.90;;;;;;4977034;28;20026;-78
2024/01/31 10:11:32;;;;;;;24.55;11.60;;;2.20;99.90;;;;;;4976792;28;20405;-78
2024/01/31 10:13:58;;;;;;;23.23;12.50;;;3.20;99.90;;;;;;4978376;28;20025;-78
2024/01/31 10:16:24;;;;;;;21.38;10.30;;;3.20;99.90;;;;;;4978539;28;20022;-77
2024/01/31 10:18:51;;;;;;;16.70;10.68;;;3.30;99.90;;;;;;4977120;28;20026;-78
2024/01/31 10:21:20;;;;;;;20.02;9.85;;;3.20;99.90;;;;;;4994412;28;20038;-79
2024/01/31 10:23:59;;;;;;;18.73;10.45;;;3.10;99.90;;;;;;4976987;28;20030;-76
2024/01/31 10:26:26;;;;;;;21.02;10.90;;;3.10;99.90;;;;;;4993973;28;20038;-75
2024/01/31 10:28:52;;;;;;;19.02;9.88;;;3.00;99.90;;;;;;4997435;28;20030;-75
2024/01/31 10:31:17;;;;;;;21.50;11.63;;;3.10;99.90;;;;;;4979941;28;20023;-77
2024/01/31 10:33:44;;;;;;;18.23;12.40;;;3.10;99.90;;;;;;4980935;28;20036;-75
2024/01/31 10:36:10;;;;;;;24.23;11.32;;;3.10;99.90;;;;;;4997631;28;20014;-76
2024/01/31 10:38:39;;;;;;;25.15;14.13;;;3.20;99.90;;;;;;4997611;28;20018;-76
2024/01/31 10:41:07;;;;;;;22.08;12.90;;;3.30;99.90;;;;;;4998326;28;20057;-76
2024/01/31 10:43:34;;;;;;;17.13;10.27;;;3.40;99.90;;;;;;4997553;28;20036;-76
2024/01/31 10:46:00;;;;;;;18.25;10.10;;;3.60;99.90;;;;;;4997927;28;20031;-79
2024/01/31 10:48:26;;;;;;;17.85;10.40;;;3.70;99.90;;;;;;4979962;28;20027;-75
2024/01/31 10:50:55;;;;;;;23.20;12.48;;;3.70;99.90;;;;;;4979284;28;20034;-75
2024/01/31 10:53:23;;;;;;;19.05;12.13;;;3.80;99.90;;;;;;4980515;28;20085;-76
2024/01/31 10:55:51;;;;;;;21.05;10.73;;;3.90;99.90;;;;;;4980288;28;20023;-79
2024/01/31 10:58:16;;;;;;;19.13;10.02;;;4.00;99.90;;;;;;4997478;28;20018;-76
2024/01/31 11:00:49;;;;;;;22.27;10.77;;;4.00;99.90;;;;;;4997243;28;20041;-75
2024/01/31 11:03:15;;;;;;;18.17;9.85;;;3.90;99.90;;;;;;4979882;28;20106;-76
2024/01/31 11:05:42;;;;;;;18.58;8.98;;;4.10;99.90;;;;;;4997175;28;20037;-76
2024/01/31 11:08:20;;;;;;;21.42;10.30;;;4.20;99.90;;;;;;4999103;28;20030;-76
2024/01/31 11:10:47;;;;;;;18.25;9.73;;;4.30;99.90;;;;;;4997369;28;20027;-76
2024/01/31 11:13:14;;;;;;;24.45;11.02;;;4.40;99.90;;;;;;4997521;28;20425;-76
2024/01/31 11:15:40;;;;;;;22.67;10.90;;;4.50;99.90;;;;;;4979305;28;20058;-76
2024/01/31 11:18:11;;;;;;;18.77;9.40;;;4.60;99.90;;;;;;4996853;28;20048;-76
2024/01/31 11:20:44;;;;;;;22.73;12.27;;;4.60;99.90;;;;;;4979594;28;20113;-78
2024/01/31 11:23:17;;;;;;;27.48;14.32;;;4.70;99.90;;;;;;4980053;28;20022;-76
2024/01/31 11:25:46;;;;;;;17.17;11.70;;;4.70;99.90;;;;;;4996892;28;20086;-76
2024/01/31 11:28:12;;;;;;;15.85;9.27;;;4.80;99.90;;;;;;4979489;28;20088;-77
2024/01/31 11:30:39;;;;;;;15.88;9.65;;;4.90;99.90;;;;;;4996720;28;20049;-76
2024/01/31 11:33:05;;;;;;;13.40;8.65;;;5.00;99.60;;;;;;4979833;28;20473;-77
2024/01/31 11:35:31;;;;;;;23.38;9.65;;;5.00;98.80;;;;;;4980564;28;20075;-76
2024/01/31 11:37:58;;;;;;;14.10;8.82;;;5.10;99.00;;;;;;4979253;28;20029;-75
2024/01/31 11:40:24;;;;;;;21.65;11.52;;;5.30;99.00;;;;;;4979101;28;20088;-76
2024/01/31 11:42:52;;;;;;;16.83;10.32;;;5.40;99.00;;;;;;4998341;28;20481;-76
2024/01/31 11:45:18;;;;;;;13.52;7.97;;;5.50;98.70;;;;;;4980111;28;20026;-76
2024/01/31 11:47:44;;;;;;;20.85;10.05;;;6.00;99.90;;;;;;4998650;28;20049;-78
2024/01/31 11:50:10;;;;;;;18.98;11.40;;;6.90;98.30;;;;;;4980374;28;20026;-77
2024/01/31 11:52:37;;;;;;;28.02;14.02;;;7.80;96.00;;;;;;4981157;28;20081;-77
2024/01/31 11:55:03;;;;;;;23.77;12.35;;;8.20;94.30;;;;;;4981648;28;20532;-77
2024/01/31 11:57:29;;;;;;;18.08;9.82;;;8.20;93.90;;;;;;4981049;28;20076;-77
2024/01/31 11:59:55;;;;;;;21.77;11.65;;;7.60;93.60;;;;;;4998154;28;20063;-76
2024/01/31 12:02:21;;;;;;;22.83;13.57;;;7.20;94.40;;;;;;4999093;28;20033;-78
2024/01/31 12:04:55;;;;;;;17.15;9.60;;;7.10;95.10;;;;;;4998925;28;20036;-77
2024/01/31 12:07:21;;;;;;;15.75;8.25;;;6.80;94.80;;;;;;4980120;28;20036;-77
2024/01/31 12:09:47;;;;;;;18.10;9.52;;;6.40;95.40;;;;;;4980660;28;20117;-77
2024/01/31 12:12:13;;;;;;;15.82;9.00;;;6.40;96.10;;;;;;4980303;28;20038;-76
2024/01/31 12:14:41;;;;;;;13.13;8.55;;;6.50;95.30;;;;;;4997740;28;20488;-76
2024/01/31 12:17:27;;;;;;;18.85;10.40;;;6.60;94.20;;;;;;4996773;28;20061;-77
2024/01/31 12:20:07;;;;;;;16.13;9.23;;;6.60;94.20;;;;;;4996858;28;20034;-76
2024/01/31 12:22:33;;;;;;;17.67;11.77;;;6.70;94.40;;;;;;4996718;28;20033;-76
2024/01/31 12:25:01;;;;;;;17.50;10.18;;;6.90;94.40;;;;;;4979254;28;20023;-76
2024/01/31 12:27:27;;;;;;;14.95;8.77;;;7.00;94.50;;;;;;4995893;28;20030;-78